sensor_id;sensor_type;location;lat;lon;timestamp;temperature;humidity
68485;DHT22;55472;50.060;21.960;2022-09-25T00:01:11;11.00;79.00
68485;DHT22;55472;50.060;21.960;2022-09-25T00:03:44;11.00;78.60
68485;DHT22;55472;50.060;21.960;2022-09-25T00:06:15;11.00;78.60
68485;DHT22;55472;50.060;21.960;2022-09-25T00:08:45;11.00;78.60
68485;DHT22;55472;50.060;21.960;2022-09-25T00:11:14;11.00;78.50
68485;DHT22;55472;50.060;21.960;2022-09-25T00:13:46;11.00;78.60
68485;DHT22;55472;50.060;21.960;2022-09-25T00:16:15;10.90;78.50
68485;DHT22;55472;50.060;21.960;2022-09-25T00:18:45;11.00;78.30
68485;DHT22;55472;50.060;21.960;2022-09-25T00:21:31;10.90;78.40
68485;DHT22;55472;50.060;21.960;2022-09-25T00:23:59;10.90;78.30
68485;DHT22;55472;50.060;21.960;2022-09-25T00:26:30;10.90;78.40
68485;DHT22;55472;50.060;21.960;2022-09-25T00:28:58;10.90;78.40
68485;DHT22;55472;50.060;21.960;2022-09-25T00:31:26;10.90;78.40
68485;DHT22;55472;50.060;21.960;2022-09-25T00:33:57;10.90;78.40
68485;DHT22;55472;50.060;21.960;2022-09-25T00:36:25;10.80;78.30
68485;DHT22;55472;50.060;21.960;2022-09-25T00:38:51;10.80;78.40
68485;DHT22;55472;50.060;21.960;2022-09-25T00:41:21;10.80;78.60
68485;DHT22;55472;50.060;21.960;2022-09-25T00:43:54;10.80;78.80
68485;DHT22;55472;50.060;21.960;2022-09-25T00:49:11;10.70;78.90
68485;DHT22;55472;50.060;21.960;2022-09-25T00:51:46;10.60;79.60
68485;DHT22;55472;50.060;21.960;2022-09-25T00:54:21;10.50;79.80
68485;DHT22;55472;50.060;21.960;2022-09-25T00:56:51;10.50;80.40
68485;DHT22;55472;50.060;21.960;2022-09-25T00:59:22;10.50;79.90
68485;DHT22;55472;50.060;21.960;2022-09-25T01:01:51;10.40;80.20
68485;DHT22;55472;50.060;21.960;2022-09-25T01:04:18;10.40;80.10
68485;DHT22;55472;50.060;21.960;2022-09-25T01:06:45;10.40;80.30
68485;DHT22;55472;50.060;21.960;2022-09-25T01:09:12;10.30;80.10
68485;DHT22;55472;50.060;21.960;2022-09-25T01:11:38;10.20;80.70
68485;DHT22;55472;50.060;21.960;2022-09-25T01:22:32;10.10;81.20
68485;DHT22;55472;50.060;21.960;2022-09-25T01:25:38;10.10;81.30
68485;DHT22;55472;50.060;21.960;2022-09-25T01:31:31;10.00;81.50
68485;DHT22;55472;50.060;21.960;2022-09-25T01:34:15;9.90;81.90
68485;DHT22;55472;50.060;21.960;2022-09-25T01:36:52;9.90;82.10
68485;DHT22;55472;50.060;21.960;2022-09-25T01:39:31;9.80;81.90
68485;DHT22;55472;50.060;21.960;2022-09-25T01:42:17;9.70;82.30
68485;DHT22;55472;50.060;21.960;2022-09-25T01:44:52;9.60;82.20
68485;DHT22;55472;50.060;21.960;2022-09-25T01:47:28;9.60;82.90
68485;DHT22;55472;50.060;21.960;2022-09-25T01:50:02;9.60;82.80
68485;DHT22;55472;50.060;21.960;2022-09-25T01:52:38;9.60;82.10
68485;DHT22;55472;50.060;21.960;2022-09-25T01:55:28;9.50;82.00
68485;DHT22;55472;50.060;21.960;2022-09-25T02:13:20;9.30;83.50
68485;DHT22;55472;50.060;21.960;2022-09-25T02:16:32;9.20;83.50
68485;DHT22;55472;50.060;21.960;2022-09-25T02:19:03;9.20;83.70
68485;DHT22;55472;50.060;21.960;2022-09-25T02:22:09;9.10;84.10
68485;DHT22;55472;50.060;21.960;2022-09-25T02:24:39;9.10;84.10
68485;DHT22;55472;50.060;21.960;2022-09-25T02:27:13;9.10;84.40
68485;DHT22;55472;50.060;21.960;2022-09-25T02:29:41;9.10;84.50
68485;DHT22;55472;50.060;21.960;2022-09-25T02:32:10;9.10;84.40
68485;DHT22;55472;50.060;21.960;2022-09-25T02:34:51;9.10;84.50
68485;DHT22;55472;50.060;21.960;2022-09-25T02:37:17;9.00;84.30
68485;DHT22;55472;50.060;21.960;2022-09-25T02:39:49;9.00;84.70
68485;DHT22;55472;50.060;21.960;2022-09-25T02:42:54;9.00;84.80
68485;DHT22;55472;50.060;21.960;2022-09-25T02:48:10;8.90;85.20
68485;DHT22;55472;50.060;21.960;2022-09-25T02:50:59;8.90;85.20
68485;DHT22;55472;50.060;21.960;2022-09-25T02:54:07;8.90;85.30
68485;DHT22;55472;50.060;21.960;2022-09-25T02:57:03;8.90;85.60
68485;DHT22;55472;50.060;21.960;2022-09-25T02:59:53;8.80;85.60
68485;DHT22;55472;50.060;21.960;2022-09-25T03:02:35;8.90;85.20
68485;DHT22;55472;50.060;21.960;2022-09-25T03:06:24;8.90;85.30
68485;DHT22;55472;50.060;21.960;2022-09-25T03:13:43;8.90;85.20
68485;DHT22;55472;50.060;21.960;2022-09-25T03:16:54;8.90;85.20
68485;DHT22;55472;50.060;21.960;2022-09-25T03:56:38;8.60;86.10
68485;DHT22;55472;50.060;21.960;2022-09-25T03:59:05;8.50;86.40
68485;DHT22;55472;50.060;21.960;2022-09-25T04:01:31;8.50;86.60
68485;DHT22;55472;50.060;21.960;2022-09-25T04:03:58;8.50;86.60
68485;DHT22;55472;50.060;21.960;2022-09-25T04:06:26;8.50;86.90
68485;DHT22;55472;50.060;21.960;2022-09-25T04:08:52;8.50;86.70
68485;DHT22;55472;50.060;21.960;2022-09-25T04:11:21;8.50;86.20
68485;DHT22;55472;50.060;21.960;2022-09-25T04:13:49;8.50;86.30
68485;DHT22;55472;50.060;21.960;2022-09-25T04:16:16;8.50;86.40
68485;DHT22;55472;50.060;21.960;2022-09-25T04:18:45;8.50;86.30
68485;DHT22;55472;50.060;21.960;2022-09-25T04:21:13;8.50;86.40
68485;DHT22;55472;50.060;21.960;2022-09-25T04:23:40;8.50;86.70
68485;DHT22;55472;50.060;21.960;2022-09-25T04:26:07;8.40;86.60
68485;DHT22;55472;50.060;21.960;2022-09-25T04:28:35;8.40;86.90
68485;DHT22;55472;50.060;21.960;2022-09-25T04:31:02;8.40;86.80
68485;DHT22;55472;50.060;21.960;2022-09-25T04:33:29;8.40;87.00
68485;DHT22;55472;50.060;21.960;2022-09-25T04:36:15;8.40;87.10
68485;DHT22;55472;50.060;21.960;2022-09-25T04:38:43;8.40;87.00
68485;DHT22;55472;50.060;21.960;2022-09-25T04:41:10;8.40;87.00
68485;DHT22;55472;50.060;21.960;2022-09-25T04:43:37;8.40;87.00
68485;DHT22;55472;50.060;21.960;2022-09-25T04:46:07;8.40;87.40
68485;DHT22;55472;50.060;21.960;2022-09-25T04:48:35;8.40;87.10
68485;DHT22;55472;50.060;21.960;2022-09-25T04:51:03;8.40;87.20
68485;DHT22;55472;50.060;21.960;2022-09-25T04:53:31;8.40;87.50
68485;DHT22;55472;50.060;21.960;2022-09-25T04:56:02;8.50;87.50
68485;DHT22;55472;50.060;21.960;2022-09-25T04:58:30;8.50;87.40
68485;DHT22;55472;50.060;21.960;2022-09-25T05:01:04;8.50;87.50
68485;DHT22;55472;50.060;21.960;2022-09-25T05:03:35;8.50;87.60
68485;DHT22;55472;50.060;21.960;2022-09-25T05:06:01;8.60;87.60
68485;DHT22;55472;50.060;21.960;2022-09-25T05:08:28;8.70;87.60
68485;DHT22;55472;50.060;21.960;2022-09-25T05:10:54;8.80;87.10
68485;DHT22;55472;50.060;21.960;2022-09-25T05:13:21;8.90;87.00
68485;DHT22;55472;50.060;21.960;2022-09-25T05:15:48;8.90;86.90
68485;DHT22;55472;50.060;21.960;2022-09-25T05:18:19;9.00;87.30
68485;DHT22;55472;50.060;21.960;2022-09-25T05:20:47;9.10;87.20
68485;DHT22;55472;50.060;21.960;2022-09-25T05:23:15;9.20;87.00
68485;DHT22;55472;50.060;21.960;2022-09-25T05:25:42;9.30;86.80
68485;DHT22;55472;50.060;21.960;2022-09-25T05:28:09;9.40;86.30
68485;DHT22;55472;50.060;21.960;2022-09-25T05:30:37;9.40;86.10
68485;DHT22;55472;50.060;21.960;2022-09-25T05:33:03;9.50;85.90
68485;DHT22;55472;50.060;21.960;2022-09-25T05:35:31;9.60;85.80
68485;DHT22;55472;50.060;21.960;2022-09-25T05:37:58;9.70;85.10
68485;DHT22;55472;50.060;21.960;2022-09-25T05:40:25;9.80;84.40
68485;DHT22;55472;50.060;21.960;2022-09-25T05:42:52;9.80;84.20
68485;DHT22;55472;50.060;21.960;2022-09-25T05:45:20;9.80;83.90
68485;DHT22;55472;50.060;21.960;2022-09-25T05:47:48;9.90;84.20
68485;DHT22;55472;50.060;21.960;2022-09-25T05:50:15;9.90;83.70
68485;DHT22;55472;50.060;21.960;2022-09-25T05:52:42;9.90;83.60
68485;DHT22;55472;50.060;21.960;2022-09-25T05:55:09;9.90;83.70
68485;DHT22;55472;50.060;21.960;2022-09-25T05:57:36;10.00;83.60
68485;DHT22;55472;50.060;21.960;2022-09-25T06:00:05;10.00;83.40
68485;DHT22;55472;50.060;21.960;2022-09-25T06:02:36;10.10;83.40
68485;DHT22;55472;50.060;21.960;2022-09-25T06:05:03;10.10;82.40
68485;DHT22;55472;50.060;21.960;2022-09-25T06:07:30;10.10;82.70
68485;DHT22;55472;50.060;21.960;2022-09-25T06:09:57;10.20;82.60
68485;DHT22;55472;50.060;21.960;2022-09-25T06:12:58;10.20;82.70
68485;DHT22;55472;50.060;21.960;2022-09-25T06:15:29;10.30;82.80
68485;DHT22;55472;50.060;21.960;2022-09-25T06:18:06;10.40;83.10
68485;DHT22;55472;50.060;21.960;2022-09-25T06:20:34;10.50;81.90
68485;DHT22;55472;50.060;21.960;2022-09-25T06:23:01;10.50;81.30
68485;DHT22;55472;50.060;21.960;2022-09-25T06:25:31;10.60;80.80
68485;DHT22;55472;50.060;21.960;2022-09-25T06:27:59;10.70;80.30
68485;DHT22;55472;50.060;21.960;2022-09-25T06:30:28;10.70;80.50
68485;DHT22;55472;50.060;21.960;2022-09-25T06:33:04;10.80;79.70
68485;DHT22;55472;50.060;21.960;2022-09-25T06:35:35;10.90;79.50
68485;DHT22;55472;50.060;21.960;2022-09-25T06:38:05;11.00;78.40
68485;DHT22;55472;50.060;21.960;2022-09-25T06:40:32;11.00;78.50
68485;DHT22;55472;50.060;21.960;2022-09-25T07:23:18;12.00;76.00
68485;DHT22;55472;50.060;21.960;2022-09-25T07:29:54;12.30;74.60
68485;DHT22;55472;50.060;21.960;2022-09-25T07:36:27;12.50;74.30
68485;DHT22;55472;50.060;21.960;2022-09-25T07:57:04;13.80;70.30
68485;DHT22;55472;50.060;21.960;2022-09-25T08:03:11;13.80;69.10
68485;DHT22;55472;50.060;21.960;2022-09-25T08:21:55;14.50;68.10
68485;DHT22;55472;50.060;21.960;2022-09-25T10:33:13;20.40;50.00
68485;DHT22;55472;50.060;21.960;2022-09-25T10:35:53;19.80;51.90
68485;DHT22;55472;50.060;21.960;2022-09-25T11:00:24;17.50;57.10
68485;DHT22;55472;50.060;21.960;2022-09-25T11:02:59;17.50;56.60
68485;DHT22;55472;50.060;21.960;2022-09-25T11:12:31;17.20;57.40
68485;DHT22;55472;50.060;21.960;2022-09-25T11:15:02;17.00;58.30
68485;DHT22;55472;50.060;21.960;2022-09-25T11:17:48;17.00;58.60
68485;DHT22;55472;50.060;21.960;2022-09-25T11:20:22;16.90;59.10
68485;DHT22;55472;50.060;21.960;2022-09-25T11:30:02;16.70;59.90
68485;DHT22;55472;50.060;21.960;2022-09-25T11:44:42;16.50;61.50
68485;DHT22;55472;50.060;21.960;2022-09-25T12:01:37;16.20;63.20
68485;DHT22;55472;50.060;21.960;2022-09-25T12:08:03;16.10;63.30
68485;DHT22;55472;50.060;21.960;2022-09-25T12:14:17;16.10;62.80
68485;DHT22;55472;50.060;21.960;2022-09-25T12:32:54;16.20;62.80
68485;DHT22;55472;50.060;21.960;2022-09-25T12:41:37;16.10;64.10
68485;DHT22;55472;50.060;21.960;2022-09-25T12:47:19;16.10;64.70
68485;DHT22;55472;50.060;21.960;2022-09-25T12:50:06;16.20;64.40
68485;DHT22;55472;50.060;21.960;2022-09-25T12:55:51;16.20;65.50
68485;DHT22;55472;50.060;21.960;2022-09-25T12:58:58;16.20;64.80
68485;DHT22;55472;50.060;21.960;2022-09-25T13:01:42;16.10;65.00
68485;DHT22;55472;50.060;21.960;2022-09-25T13:40:08;16.30;65.00
68485;DHT22;55472;50.060;21.960;2022-09-25T13:43:25;16.30;65.40
68485;DHT22;55472;50.060;21.960;2022-09-25T13:49:32;16.30;63.80
68485;DHT22;55472;50.060;21.960;2022-09-25T13:58:02;16.20;63.90
68485;DHT22;55472;50.060;21.960;2022-09-25T14:06:36;16.20;64.50
68485;DHT22;55472;50.060;21.960;2022-09-25T14:13:43;16.10;64.60
68485;DHT22;55472;50.060;21.960;2022-09-25T14:16:54;16.00;64.30
68485;DHT22;55472;50.060;21.960;2022-09-25T14:19:28;15.90;65.00
68485;DHT22;55472;50.060;21.960;2022-09-25T14:30:09;15.70;64.90
68485;DHT22;55472;50.060;21.960;2022-09-25T14:36:23;15.50;66.00
68485;DHT22;55472;50.060;21.960;2022-09-25T14:39:28;15.50;65.30
68485;DHT22;55472;50.060;21.960;2022-09-25T14:48:09;15.30;66.30
68485;DHT22;55472;50.060;21.960;2022-09-25T14:50:45;15.30;66.40
68485;DHT22;55472;50.060;21.960;2022-09-25T14:53:23;15.20;66.70
68485;DHT22;55472;50.060;21.960;2022-09-25T14:55:55;15.10;67.00
68485;DHT22;55472;50.060;21.960;2022-09-25T14:58:50;15.00;67.20
68485;DHT22;55472;50.060;21.960;2022-09-25T15:01:26;14.90;67.80
68485;DHT22;55472;50.060;21.960;2022-09-25T15:04:02;14.90;67.80
68485;DHT22;55472;50.060;21.960;2022-09-25T15:06:35;14.90;68.00
68485;DHT22;55472;50.060;21.960;2022-09-25T15:09:27;14.80;68.40
68485;DHT22;55472;50.060;21.960;2022-09-25T15:12:15;14.80;68.20
68485;DHT22;55472;50.060;21.960;2022-09-25T15:15:01;14.70;68.70
68485;DHT22;55472;50.060;21.960;2022-09-25T15:17:32;14.60;69.20
68485;DHT22;55472;50.060;21.960;2022-09-25T15:20:08;14.60;69.30
68485;DHT22;55472;50.060;21.960;2022-09-25T15:22:58;14.40;69.70
68485;DHT22;55472;50.060;21.960;2022-09-25T15:25:52;14.40;70.30
68485;DHT22;55472;50.060;21.960;2022-09-25T15:28:22;14.40;70.60
68485;DHT22;55472;50.060;21.960;2022-09-25T15:31:00;14.20;70.90
68485;DHT22;55472;50.060;21.960;2022-09-25T15:37:26;14.10;71.50
68485;DHT22;55472;50.060;21.960;2022-09-25T15:39:54;14.10;71.50
68485;DHT22;55472;50.060;21.960;2022-09-25T15:42:23;14.00;71.90
68485;DHT22;55472;50.060;21.960;2022-09-25T15:44:50;13.90;72.40
68485;DHT22;55472;50.060;21.960;2022-09-25T15:47:48;13.80;72.60
68485;DHT22;55472;50.060;21.960;2022-09-25T15:57:15;13.60;73.80
68485;DHT22;55472;50.060;21.960;2022-09-25T15:59:49;13.50;74.20
68485;DHT22;55472;50.060;21.960;2022-09-25T16:05:58;13.40;74.80
68485;DHT22;55472;50.060;21.960;2022-09-25T16:08:35;13.40;75.30
68485;DHT22;55472;50.060;21.960;2022-09-25T16:11:23;13.30;75.50
68485;DHT22;55472;50.060;21.960;2022-09-25T16:14:15;13.30;75.60
68485;DHT22;55472;50.060;21.960;2022-09-25T16:16:51;13.30;75.90
68485;DHT22;55472;50.060;21.960;2022-09-25T16:19:28;13.30;76.10
68485;DHT22;55472;50.060;21.960;2022-09-25T16:22:20;13.30;76.00
68485;DHT22;55472;50.060;21.960;2022-09-25T16:24:50;13.30;76.10
68485;DHT22;55472;50.060;21.960;2022-09-25T16:27:27;13.20;76.20
68485;DHT22;55472;50.060;21.960;2022-09-25T16:29:59;13.20;76.50
68485;DHT22;55472;50.060;21.960;2022-09-25T16:48:36;12.90;77.40
68485;DHT22;55472;50.060;21.960;2022-09-25T16:51:34;12.90;77.90
68485;DHT22;55472;50.060;21.960;2022-09-25T16:54:18;12.80;77.80
68485;DHT22;55472;50.060;21.960;2022-09-25T16:59:55;12.80;78.00
68485;DHT22;55472;50.060;21.960;2022-09-25T17:02:32;12.80;78.30
68485;DHT22;55472;50.060;21.960;2022-09-25T17:05:05;12.70;78.40
68485;DHT22;55472;50.060;21.960;2022-09-25T17:07:59;12.70;78.90
68485;DHT22;55472;50.060;21.960;2022-09-25T17:10:54;12.70;78.90
68485;DHT22;55472;50.060;21.960;2022-09-25T17:13:35;12.70;79.00
68485;DHT22;55472;50.060;21.960;2022-09-25T17:16:24;12.70;79.10
68485;DHT22;55472;50.060;21.960;2022-09-25T17:18:58;12.70;79.40
68485;DHT22;55472;50.060;21.960;2022-09-25T17:21:27;12.60;79.30
68485;DHT22;55472;50.060;21.960;2022-09-25T17:23:54;12.60;79.60
68485;DHT22;55472;50.060;21.960;2022-09-25T17:26:28;12.60;79.40
68485;DHT22;55472;50.060;21.960;2022-09-25T17:29:00;12.60;79.50
68485;DHT22;55472;50.060;21.960;2022-09-25T17:31:27;12.60;79.70
68485;DHT22;55472;50.060;21.960;2022-09-25T17:33:56;12.60;80.00
68485;DHT22;55472;50.060;21.960;2022-09-25T17:36:23;12.60;80.00
68485;DHT22;55472;50.060;21.960;2022-09-25T17:38:51;12.60;80.00
68485;DHT22;55472;50.060;21.960;2022-09-25T17:41:29;12.60;80.00
68485;DHT22;55472;50.060;21.960;2022-09-25T17:44:07;12.60;80.00
68485;DHT22;55472;50.060;21.960;2022-09-25T17:46:45;12.50;80.20
68485;DHT22;55472;50.060;21.960;2022-09-25T17:49:18;12.50;80.10
68485;DHT22;55472;50.060;21.960;2022-09-25T17:51:55;12.60;80.30
68485;DHT22;55472;50.060;21.960;2022-09-25T17:54:29;12.50;80.40
68485;DHT22;55472;50.060;21.960;2022-09-25T17:57:19;12.50;80.50
68485;DHT22;55472;50.060;21.960;2022-09-25T17:59:59;12.50;80.60
68485;DHT22;55472;50.060;21.960;2022-09-25T18:02:31;12.50;80.90
68485;DHT22;55472;50.060;21.960;2022-09-25T18:05:06;12.50;81.10
68485;DHT22;55472;50.060;21.960;2022-09-25T18:07:39;12.50;81.10
68485;DHT22;55472;50.060;21.960;2022-09-25T18:10:15;12.50;81.20
68485;DHT22;55472;50.060;21.960;2022-09-25T18:12:45;12.50;81.50
68485;DHT22;55472;50.060;21.960;2022-09-25T18:15:12;12.50;81.50
68485;DHT22;55472;50.060;21.960;2022-09-25T18:17:46;12.50;81.60
68485;DHT22;55472;50.060;21.960;2022-09-25T18:20:17;12.50;81.60
68485;DHT22;55472;50.060;21.960;2022-09-25T18:23:19;12.50;81.60
68485;DHT22;55472;50.060;21.960;2022-09-25T18:26:14;12.50;81.70
68485;DHT22;55472;50.060;21.960;2022-09-25T18:38:00;12.40;82.70
68485;DHT22;55472;50.060;21.960;2022-09-25T18:40:26;12.40;82.70
68485;DHT22;55472;50.060;21.960;2022-09-25T18:42:55;12.40;82.70
68485;DHT22;55472;50.060;21.960;2022-09-25T18:45:24;12.40;83.00
68485;DHT22;55472;50.060;21.960;2022-09-25T18:47:50;12.40;83.20
68485;DHT22;55472;50.060;21.960;2022-09-25T18:50:16;12.40;83.60
68485;DHT22;55472;50.060;21.960;2022-09-25T18:52:45;12.40;83.50
68485;DHT22;55472;50.060;21.960;2022-09-25T18:55:14;12.40;83.70
68485;DHT22;55472;50.060;21.960;2022-09-25T18:57:40;12.40;83.80
68485;DHT22;55472;50.060;21.960;2022-09-25T19:00:08;12.40;84.00
68485;DHT22;55472;50.060;21.960;2022-09-25T19:02:35;12.30;84.00
68485;DHT22;55472;50.060;21.960;2022-09-25T19:05:04;12.30;84.10
68485;DHT22;55472;50.060;21.960;2022-09-25T19:07:31;12.30;84.30
68485;DHT22;55472;50.060;21.960;2022-09-25T19:09:58;12.30;84.30
68485;DHT22;55472;50.060;21.960;2022-09-25T19:12:30;12.30;84.40
68485;DHT22;55472;50.060;21.960;2022-09-25T19:14:57;12.30;84.40
68485;DHT22;55472;50.060;21.960;2022-09-25T19:17:23;12.30;84.60
68485;DHT22;55472;50.060;21.960;2022-09-25T19:19:50;12.30;84.70
68485;DHT22;55472;50.060;21.960;2022-09-25T19:22:18;12.30;84.70
68485;DHT22;55472;50.060;21.960;2022-09-25T19:24:47;12.30;84.70
68485;DHT22;55472;50.060;21.960;2022-09-25T19:27:15;12.30;84.80
68485;DHT22;55472;50.060;21.960;2022-09-25T19:29:45;12.30;85.10
68485;DHT22;55472;50.060;21.960;2022-09-25T19:32:14;12.30;84.80
68485;DHT22;55472;50.060;21.960;2022-09-25T19:34:44;12.30;84.80
68485;DHT22;55472;50.060;21.960;2022-09-25T19:37:11;12.30;85.00
68485;DHT22;55472;50.060;21.960;2022-09-25T19:39:47;12.30;85.00
68485;DHT22;55472;50.060;21.960;2022-09-25T19:42:37;12.30;84.80
68485;DHT22;55472;50.060;21.960;2022-09-25T19:45:05;12.30;85.00
68485;DHT22;55472;50.060;21.960;2022-09-25T19:47:32;12.30;85.10
68485;DHT22;55472;50.060;21.960;2022-09-25T19:54:13;12.30;85.20
68485;DHT22;55472;50.060;21.960;2022-09-25T19:56:41;12.30;85.30
68485;DHT22;55472;50.060;21.960;2022-09-25T19:59:11;12.30;85.40
68485;DHT22;55472;50.060;21.960;2022-09-25T20:01:39;12.30;85.30
68485;DHT22;55472;50.060;21.960;2022-09-25T20:04:09;12.30;85.30
68485;DHT22;55472;50.060;21.960;2022-09-25T20:06:36;12.30;85.40
68485;DHT22;55472;50.060;21.960;2022-09-25T20:09:05;12.40;85.50
68485;DHT22;55472;50.060;21.960;2022-09-25T20:11:34;12.40;85.50
68485;DHT22;55472;50.060;21.960;2022-09-25T20:14:03;12.30;85.50
68485;DHT22;55472;50.060;21.960;2022-09-25T20:16:30;12.40;85.70
68485;DHT22;55472;50.060;21.960;2022-09-25T20:19:02;12.30;85.80
68485;DHT22;55472;50.060;21.960;2022-09-25T20:21:35;12.30;85.80
68485;DHT22;55472;50.060;21.960;2022-09-25T20:24:06;12.40;85.90
68485;DHT22;55472;50.060;21.960;2022-09-25T20:26:33;12.40;85.90
68485;DHT22;55472;50.060;21.960;2022-09-25T20:29:07;12.40;86.10
68485;DHT22;55472;50.060;21.960;2022-09-25T20:31:36;12.40;86.00
68485;DHT22;55472;50.060;21.960;2022-09-25T20:34:03;12.40;86.10
68485;DHT22;55472;50.060;21.960;2022-09-25T20:36:30;12.40;86.10
68485;DHT22;55472;50.060;21.960;2022-09-25T20:38:56;12.30;86.20
68485;DHT22;55472;50.060;21.960;2022-09-25T20:41:24;12.30;86.30
68485;DHT22;55472;50.060;21.960;2022-09-25T20:43:53;12.40;86.40
68485;DHT22;55472;50.060;21.960;2022-09-25T20:46:20;12.40;86.60
68485;DHT22;55472;50.060;21.960;2022-09-25T20:48:54;12.40;86.60
68485;DHT22;55472;50.060;21.960;2022-09-25T20:51:25;12.40;86.60
68485;DHT22;55472;50.060;21.960;2022-09-25T20:53:59;12.30;86.80
68485;DHT22;55472;50.060;21.960;2022-09-25T20:56:29;12.30;86.80
68485;DHT22;55472;50.060;21.960;2022-09-25T20:58:57;12.30;86.80
68485;DHT22;55472;50.060;21.960;2022-09-25T21:01:26;12.30;86.90
68485;DHT22;55472;50.060;21.960;2022-09-25T21:03:58;12.40;86.90
68485;DHT22;55472;50.060;21.960;2022-09-25T21:06:28;12.30;87.20
68485;DHT22;55472;50.060;21.960;2022-09-25T21:08:57;12.40;87.10
68485;DHT22;55472;50.060;21.960;2022-09-25T21:11:29;12.30;87.10
68485;DHT22;55472;50.060;21.960;2022-09-25T21:14:00;12.30;87.20
68485;DHT22;55472;50.060;21.960;2022-09-25T21:16:31;12.30;87.60
68485;DHT22;55472;50.060;21.960;2022-09-25T21:19:03;12.30;87.90
68485;DHT22;55472;50.060;21.960;2022-09-25T21:21:31;12.30;88.20
68485;DHT22;55472;50.060;21.960;2022-09-25T21:23:58;12.30;88.40
68485;DHT22;55472;50.060;21.960;2022-09-25T21:26:27;12.30;89.00
68485;DHT22;55472;50.060;21.960;2022-09-25T21:28:56;12.30;89.10
68485;DHT22;55472;50.060;21.960;2022-09-25T21:31:28;12.30;89.10
68485;DHT22;55472;50.060;21.960;2022-09-25T21:34:03;12.30;89.40
68485;DHT22;55472;50.060;21.960;2022-09-25T21:36:31;12.30;89.70
68485;DHT22;55472;50.060;21.960;2022-09-25T21:38:59;12.30;90.20
68485;DHT22;55472;50.060;21.960;2022-09-25T21:41:27;12.30;90.80
68485;DHT22;55472;50.060;21.960;2022-09-25T21:43:57;12.20;91.00
68485;DHT22;55472;50.060;21.960;2022-09-25T21:46:25;12.20;91.10
68485;DHT22;55472;50.060;21.960;2022-09-25T21:48:54;12.30;91.00
68485;DHT22;55472;50.060;21.960;2022-09-25T21:51:26;12.20;90.90
68485;DHT22;55472;50.060;21.960;2022-09-25T21:53:56;12.20;91.10
68485;DHT22;55472;50.060;21.960;2022-09-25T22:00:23;12.20;91.60
68485;DHT22;55472;50.060;21.960;2022-09-25T22:02:49;12.20;91.70
68485;DHT22;55472;50.060;21.960;2022-09-25T22:05:16;12.20;91.90
68485;DHT22;55472;50.060;21.960;2022-09-25T22:07:42;12.10;92.00
68485;DHT22;55472;50.060;21.960;2022-09-25T22:10:09;12.10;92.40
68485;DHT22;55472;50.060;21.960;2022-09-25T22:12:35;12.10;92.40
68485;DHT22;55472;50.060;21.960;2022-09-25T22:15:01;12.20;92.10
68485;DHT22;55472;50.060;21.960;2022-09-25T22:17:29;12.10;92.50
68485;DHT22;55472;50.060;21.960;2022-09-25T22:19:55;12.10;92.50
68485;DHT22;55472;50.060;21.960;2022-09-25T22:22:22;12.10;92.20
68485;DHT22;55472;50.060;21.960;2022-09-25T22:24:48;12.10;92.40
68485;DHT22;55472;50.060;21.960;2022-09-25T22:27:15;12.10;92.70
68485;DHT22;55472;50.060;21.960;2022-09-25T22:29:41;12.10;92.80
68485;DHT22;55472;50.060;21.960;2022-09-25T22:32:08;12.10;93.00
68485;DHT22;55472;50.060;21.960;2022-09-25T22:34:34;12.10;93.20
68485;DHT22;55472;50.060;21.960;2022-09-25T22:37:01;12.00;93.40
68485;DHT22;55472;50.060;21.960;2022-09-25T22:39:29;12.00;93.60
68485;DHT22;55472;50.060;21.960;2022-09-25T22:41:55;12.00;93.60
68485;DHT22;55472;50.060;21.960;2022-09-25T22:44:22;12.00;93.50
68485;DHT22;55472;50.060;21.960;2022-09-25T22:46:49;12.00;93.20
68485;DHT22;55472;50.060;21.960;2022-09-25T22:49:16;12.00;93.00
68485;DHT22;55472;50.060;21.960;2022-09-25T22:51:42;12.00;93.00
68485;DHT22;55472;50.060;21.960;2022-09-25T22:54:13;12.00;93.20
68485;DHT22;55472;50.060;21.960;2022-09-25T22:56:39;12.00;93.50
68485;DHT22;55472;50.060;21.960;2022-09-25T22:59:09;12.00;93.60
68485;DHT22;55472;50.060;21.960;2022-09-25T23:01:49;12.00;93.60
68485;DHT22;55472;50.060;21.960;2022-09-25T23:04:21;11.90;93.80
68485;DHT22;55472;50.060;21.960;2022-09-25T23:06:49;11.90;93.90
68485;DHT22;55472;50.060;21.960;2022-09-25T23:09:18;11.90;94.00
68485;DHT22;55472;50.060;21.960;2022-09-25T23:11:46;11.90;94.00
68485;DHT22;55472;50.060;21.960;2022-09-25T23:14:17;11.90;94.10
68485;DHT22;55472;50.060;21.960;2022-09-25T23:16:46;11.90;94.00
68485;DHT22;55472;50.060;21.960;2022-09-25T23:19:17;11.90;94.00
68485;DHT22;55472;50.060;21.960;2022-09-25T23:21:43;11.90;94.30
68485;DHT22;55472;50.060;21.960;2022-09-25T23:24:13;11.90;94.50
68485;DHT22;55472;50.060;21.960;2022-09-25T23:26:41;11.90;94.30
68485;DHT22;55472;50.060;21.960;2022-09-25T23:29:11;11.90;94.20
68485;DHT22;55472;50.060;21.960;2022-09-25T23:31:38;11.90;94.30
68485;DHT22;55472;50.060;21.960;2022-09-25T23:34:04;11.90;94.30
68485;DHT22;55472;50.060;21.960;2022-09-25T23:36:30;11.90;94.40
68485;DHT22;55472;50.060;21.960;2022-09-25T23:39:00;11.90;94.60
68485;DHT22;55472;50.060;21.960;2022-09-25T23:41:33;11.90;94.40
68485;DHT22;55472;50.060;21.960;2022-09-25T23:44:03;11.90;94.50
68485;DHT22;55472;50.060;21.960;2022-09-25T23:46:33;11.90;94.20
68485;DHT22;55472;50.060;21.960;2022-09-25T23:49:03;11.90;94.40
68485;DHT22;55472;50.060;21.960;2022-09-25T23:51:29;11.90;94.50
68485;DHT22;55472;50.060;21.960;2022-09-25T23:53:57;11.90;94.60
68485;DHT22;55472;50.060;21.960;2022-09-25T23:56:26;11.90;94.50
68485;DHT22;55472;50.060;21.960;2022-09-25T23:58:59;11.90;94.70
